Time;durP1;ratioP1;P1;durP2;ratioP2;P2;SDS_P1;SDS_P2;PMS_P1;PMS_P2;Temp;Humidity;BMP_temperature;BMP_pressure;BME280_temperature;BME280_humidity;BME280_pressure;Samples;Min_cycle;Max_cycle;Signal;HPM_P1;HPM_P2
2022/02/02 00:02:02;;;;;;;24.82;14.15;;;;;;;2.34;79.24;98586.33;1683975;84;21572;-79
2022/02/02 00:04:07;;;;;;;39.60;18.95;;;;;;;2.36;79.30;98587.66;1682481;85;21066;-79
2022/02/02 00:06:42;;;;;;;35.17;17.62;;;;;;;2.33;79.26;98579.40;1684034;84;21043;-79
2022/02/02 00:09:10;;;;;;;38.95;18.80;;;;;;;2.33;79.34;98585.89;1699510;82;21564;-79
2022/02/02 00:12:25;;;;;;;30.50;16.60;;;;;;;2.36;79.40;98578.58;1712525;83;21826;-79
2022/02/02 00:14:22;;;;;;;24.90;14.00;;;;;;;2.36;79.33;98577.28;1674193;82;21047;-79
2022/02/02 00:16:54;;;;;;;24.87;12.93;;;;;;;2.33;79.33;98578.97;1711969;83;21724;-79
2022/02/02 00:21:51;;;;;;;20.77;11.57;;;;;;;2.33;79.39;98578.97;1713529;82;21144;-79
2022/02/02 00:24:31;;;;;;;20.25;12.25;;;;;;;2.36;79.48;98578.15;1712997;82;22291;-79
2022/02/02 00:26:54;;;;;;;25.82;13.70;;;;;;;2.37;79.47;98572.56;1711843;83;21179;-79
2022/02/02 00:29:21;;;;;;;29.65;14.95;;;;;;;2.40;79.57;98570.88;1712504;82;21062;-79
2022/02/02 00:31:54;;;;;;;34.00;17.27;;;;;;;2.42;79.48;98574.81;1712989;82;21716;-80
2022/02/02 00:34:21;;;;;;;40.98;19.60;;;;;;;2.43;79.46;98574.85;1712291;82;21101;-80
2022/02/02 00:36:53;;;;;;;41.18;19.55;;;;;;;2.44;79.45;98579.61;1712714;83;21965;-80
2022/02/02 00:39:17;;;;;;;36.08;18.37;;;;;;;2.44;79.48;98580.52;1712990;82;28355;-80
2022/02/02 00:41:46;;;;;;;30.55;16.70;;;;;;;2.47;79.56;98576.67;1711686;83;21034;-80
2022/02/02 00:44:18;;;;;;;25.12;15.10;;;;;;;2.49;79.51;98580.60;1713282;82;21085;-80
2022/02/02 00:46:51;;;;;;;25.23;14.23;;;;;;;2.49;79.48;98583.20;1713548;82;21133;-80
2022/02/02 00:49:17;;;;;;;24.43;13.38;;;;;;;2.45;79.38;98582.25;1713446;82;21729;-80
2022/02/02 00:51:49;;;;;;;21.85;13.38;;;;;;;2.43;79.36;98582.64;1713479;83;21063;-80
2022/02/02 00:54:34;;;;;;;25.23;13.10;;;;;;;2.41;79.42;98584.33;1713404;82;21063;-80
2022/02/02 00:57:01;;;;;;;21.93;12.73;;;;;;;2.41;79.50;98584.33;1713779;82;21046;-80
2022/02/02 00:59:27;;;;;;;22.70;13.15;;;;;;;2.41;79.54;98592.55;1713410;82;21054;-80
2022/02/02 01:01:54;;;;;;;22.13;13.22;;;;;;;2.38;79.53;98588.14;1713454;83;21822;-80
2022/02/02 01:04:21;;;;;;;18.70;12.00;;;;;;;2.39;79.62;98589.91;1713224;82;21034;-80
2022/02/02 01:10:00;;;;;;;19.50;11.85;;;;;;;2.37;79.65;98592.03;1693286;82;21661;-80
2022/02/02 01:17:58;;;;;;;18.65;12.75;;;;;;;2.42;79.64;98587.80;1684028;85;21086;-80
2022/02/02 01:20:32;;;;;;;19.32;12.78;;;;;;;2.40;79.62;98586.88;1682357;84;21070;-80
2022/02/02 01:28:15;;;;;;;20.80;12.58;;;;;;;2.38;79.64;98589.88;1683992;84;21810;-80
2022/02/02 01:30:42;;;;;;;22.20;12.93;;;;;;;2.37;79.65;98588.13;1683967;84;21059;-81
2022/02/02 01:33:08;;;;;;;17.20;13.13;;;;;;;2.33;79.64;98580.70;1684026;84;21078;-80
2022/02/02 01:35:35;;;;;;;20.27;12.63;;;;;;;2.33;79.68;98581.99;1683978;84;21559;-80
2022/02/02 01:38:04;;;;;;;21.97;13.38;;;;;;;2.32;79.68;98588.02;1684050;84;21047;-80
2022/02/02 01:40:35;;;;;;;16.05;11.40;;;;;;;2.31;79.68;98596.66;1683934;84;21478;-80
2022/02/02 01:43:04;;;;;;;17.80;11.55;;;;;;;2.30;79.71;98595.76;1683742;84;21520;-80
2022/02/02 01:45:34;;;;;;;16.40;11.35;;;;;;;2.29;79.75;98595.72;1683763;84;21639;-80
2022/02/02 01:48:24;;;;;;;16.17;10.78;;;;;;;2.30;79.71;98584.50;1683351;84;21086;-80
2022/02/02 01:53:20;;;;;;;15.18;11.25;;;;;;;2.24;79.75;98588.27;1683816;84;21457;-80
2022/02/02 01:55:39;;;;;;;14.10;10.90;;;;;;;2.21;79.65;98589.48;1683315;84;21087;-80
2022/02/02 02:00:56;;;;;;;16.48;11.70;;;;;;;2.21;79.93;98601.16;1683888;85;21213;-80
2022/02/02 02:03:22;;;;;;;16.65;11.75;;;;;;;2.26;79.97;98606.05;1684265;84;21705;-80
2022/02/02 02:05:49;;;;;;;18.52;13.15;;;;;;;2.23;79.90;98603.37;1684241;84;21678;-80
2022/02/02 02:08:16;;;;;;;20.30;14.38;;;;;;;2.21;79.86;98611.11;1683996;84;21521;-79
2022/02/02 02:10:43;;;;;;;20.65;13.88;;;;;;;2.18;79.79;98611.46;1712492;82;21122;-80
2022/02/02 02:13:18;;;;;;;22.10;15.10;;;;;;;2.16;79.97;98614.44;1713091;82;21078;-81
2022/02/02 02:15:42;;;;;;;24.82;16.70;;;;;;;2.14;79.97;98619.19;1712923;82;21524;-79
2022/02/02 02:18:09;;;;;;;29.10;17.55;;;;;;;2.16;80.03;98614.44;1713770;82;21769;-80
2022/02/02 02:20:36;;;;;;;27.15;17.30;;;;;;;2.12;79.93;98611.80;1713655;83;21579;-80
2022/02/02 02:23:03;;;;;;;30.52;19.25;;;;;;;2.09;79.99;98610.41;1713936;83;21058;-80
2022/02/02 02:25:31;;;;;;;30.72;19.50;;;;;;;2.04;79.93;98610.71;1713638;82;21016;-80
2022/02/02 02:30:50;;;;;;;31.75;19.30;;;;;;;1.98;80.05;98613.16;1713211;82;21835;-80
2022/02/02 02:33:50;;;;;;;31.27;20.08;;;;;;;1.96;80.22;98633.01;1712440;82;21058;-79
2022/02/02 02:57:47;;;;;;;33.15;21.00;;;;;;;1.95;80.34;98642.91;1713281;83;22702;-79
2022/02/02 03:00:29;;;;;;;33.85;21.77;;;;;;;1.96;80.51;98646.41;1712385;82;21706;-80
2022/02/02 03:13:45;;;;;;;35.75;20.97;;;;;;;1.93;80.43;98644.59;1693359;83;21073;-79
2022/02/02 03:30:17;;;;;;;34.45;21.40;;;;;;;2.06;80.73;98671.30;1713540;83;21549;-81
2022/02/02 03:49:38;;;;;;;29.25;18.05;;;;;;;2.01;81.21;98713.15;1713737;83;21193;-80
2022/02/02 03:52:33;;;;;;;26.70;18.23;;;;;;;2.00;81.26;98716.56;1711415;82;22452;-80
2022/02/02 03:59:43;;;;;;;22.00;16.27;;;;;;;1.95;81.41;98725.94;1713239;82;21159;-79
2022/02/02 04:02:15;;;;;;;21.20;14.40;;;;;;;1.95;81.46;98735.02;1712274;82;21035;-80
2022/02/02 04:04:46;;;;;;;20.40;13.88;;;;;;;1.97;81.51;98735.06;1709942;82;21909;-80
2022/02/02 04:07:15;;;;;;;17.98;13.18;;;;;;;1.97;81.51;98741.16;1711928;82;21089;-79
2022/02/02 04:09:37;;;;;;;15.85;11.40;;;;;;;1.93;81.49;98736.70;1704927;82;21591;-80
2022/02/02 04:51:26;;;;;;;27.65;19.52;;;;;;;1.56;82.71;98813.50;1683979;83;21593;-79
2022/02/02 04:53:32;;;;;;;23.50;17.10;;;;;;;1.59;82.80;98821.77;1684406;84;21067;-87
2022/02/02 04:55:42;;;;;;;24.47;17.25;;;;;;;1.58;82.96;98831.66;1682670;85;21564;-86
2022/02/02 04:58:31;;;;;;;26.00;18.80;;;;;;;1.61;83.05;98830.47;1683837;84;21841;-87
2022/02/02 05:11:58;;;;;;;23.02;15.70;;;;;;;1.65;83.20;98863.44;1658190;86;22573;-88
2022/02/02 05:15:11;;;;;;;22.95;16.30;;;;;;;1.66;83.18;98880.34;1656821;85;21134;-84
2022/02/02 05:16:58;;;;;;;23.45;15.53;;;;;;;1.64;83.08;98876.83;1659452;86;21126;-85
2022/02/02 05:19:54;;;;;;;20.65;15.88;;;;;;;1.65;83.20;98890.66;1660053;84;21155;-85
2022/02/02 05:22:23;;;;;;;20.25;15.30;;;;;;;1.67;83.24;98891.20;1660349;86;21568;-86
2022/02/02 05:25:15;;;;;;;21.85;15.43;;;;;;;1.64;83.19;98891.52;1660515;86;21801;-85
2022/02/02 05:28:22;;;;;;;18.75;14.85;;;;;;;1.66;83.26;98914.06;1660087;85;21352;-85
2022/02/02 05:41:25;;;;;;;21.27;15.03;;;;;;;1.80;83.31;98944.30;1660176;85;21538;-84
2022/02/02 05:43:41;;;;;;;19.62;14.07;;;;;;;1.81;83.29;98946.50;1660558;86;21628;-88
2022/02/02 05:48:55;;;;;;;21.97;14.38;;;;;;;1.82;83.20;98961.22;1695746;83;21369;-85
2022/02/02 05:51:22;;;;;;;22.65;15.55;;;;;;;1.82;83.24;98959.92;1754804;80;21781;-87
2022/02/02 05:53:42;;;;;;;22.42;14.80;;;;;;;1.85;83.30;98964.79;1758205;80;21853;-87
2022/02/02 05:56:08;;;;;;;19.77;14.28;;;;;;;1.83;83.24;98961.70;1698766;82;21169;-85
2022/02/02 05:58:39;;;;;;;21.33;14.90;;;;;;;1.87;83.22;98975.22;1730185;81;21040;-84
2022/02/02 06:01:08;;;;;;;19.90;13.83;;;;;;;1.86;83.20;98979.93;1700241;82;21072;-84
2022/02/02 06:03:57;;;;;;;17.82;13.93;;;;;;;1.82;83.16;98985.47;1729406;81;21762;-85
2022/02/02 06:06:24;;;;;;;16.42;13.13;;;;;;;1.85;83.30;98990.73;1727019;80;21304;-85
2022/02/02 06:08:52;;;;;;;20.27;14.18;;;;;;;1.87;83.28;98993.38;1760264;81;21061;-85
2022/02/02 06:11:22;;;;;;;20.90;14.65;;;;;;;1.89;83.28;98999.07;1752794;80;21043;-85
2022/02/02 06:13:53;;;;;;;20.48;13.90;;;;;;;1.90;83.26;99008.63;1749740;80;21631;-83
2022/02/02 06:16:20;;;;;;;22.42;14.50;;;;;;;1.92;83.22;99015.17;1749319;80;21702;-84
2022/02/02 06:18:54;;;;;;;21.75;14.53;;;;;;;1.95;83.34;99015.25;1749502;80;21095;-84
2022/02/02 06:21:16;;;;;;;20.48;14.07;;;;;;;1.98;83.26;99024.44;1748999;80;21606;-84
2022/02/02 06:23:55;;;;;;;20.90;13.40;;;;;;;1.98;83.20;99019.25;1749686;80;21066;-84
2022/02/02 06:26:21;;;;;;;16.93;13.20;;;;;;;2.01;83.22;99030.12;1748853;80;21598;-84
2022/02/02 06:28:48;;;;;;;17.65;13.22;;;;;;;2.01;83.16;99033.63;1749650;80;22688;-84
2022/02/02 06:31:15;;;;;;;17.35;13.13;;;;;;;2.01;83.08;99036.62;1749729;82;21003;-84
2022/02/02 06:33:42;;;;;;;16.77;13.05;;;;;;;2.00;83.06;99035.74;1749737;82;21077;-84
2022/02/02 06:36:10;;;;;;;17.90;13.28;;;;;;;1.98;83.06;99043.90;1749861;82;21159;-84
2022/02/02 06:38:42;;;;;;;17.77;14.15;;;;;;;1.98;83.08;99046.92;1749633;82;21086;-85
2022/02/02 06:41:07;;;;;;;17.40;12.88;;;;;;;1.98;83.07;99049.52;1749034;81;22634;-84
2022/02/02 06:43:34;;;;;;;15.05;12.85;;;;;;;1.97;83.07;99056.81;1749720;82;21062;-84
2022/02/02 06:46:03;;;;;;;18.77;13.13;;;;;;;1.94;82.99;99061.08;1749662;82;21074;-84
2022/02/02 06:48:32;;;;;;;21.10;14.23;;;;;;;1.95;83.03;99076.23;1749439;80;21536;-84
2022/02/02 06:51:16;;;;;;;17.80;14.10;;;;;;;1.95;83.10;99082.71;1749687;82;22474;-84
2022/02/02 06:54:00;;;;;;;17.23;12.63;;;;;;;1.97;83.12;99087.95;1745834;80;21918;-84
2022/02/02 06:56:52;;;;;;;22.73;14.28;;;;;;;2.01;83.12;99099.80;1748875;82;22424;-84
2022/02/02 06:59:47;;;;;;;21.27;13.95;;;;;;;2.02;83.11;99101.55;1749619;81;21058;-84
2022/02/02 07:02:20;;;;;;;20.68;14.50;;;;;;;2.02;83.03;99116.25;1747410;81;21105;-83
2022/02/02 07:10:23;;;;;;;22.58;15.88;;;;;;;2.09;83.07;99135.09;1749349;80;21034;-83
2022/02/02 07:13:02;;;;;;;24.07;17.00;;;;;;;2.08;83.00;99138.50;1714146;82;21063;-84
2022/02/02 07:15:39;;;;;;;23.75;16.17;;;;;;;2.14;83.10;99147.37;1731957;82;21087;-84
2022/02/02 07:18:12;;;;;;;23.60;16.35;;;;;;;2.18;83.05;99148.76;1731559;82;21042;-84
2022/02/02 07:23:17;;;;;;;22.62;15.18;;;;;;;2.22;82.85;99159.31;1733752;82;21102;-84
2022/02/02 07:26:02;;;;;;;20.62;15.58;;;;;;;2.21;82.84;99164.45;1730859;82;21106;-84
2022/02/02 07:28:15;;;;;;;21.80;14.80;;;;;;;2.20;82.78;99166.59;1730264;82;21043;-84
2022/02/02 07:33:15;;;;;;;25.52;17.12;;;;;;;2.25;82.84;99183.18;1733721;82;21815;-84
2022/02/02 07:36:02;;;;;;;20.25;14.90;;;;;;;2.26;82.77;99182.36;1713129;82;21062;-84
2022/02/02 07:38:26;;;;;;;22.20;16.48;;;;;;;2.30;82.83;99194.61;1732932;82;21050;-84
2022/02/02 07:40:57;;;;;;;25.37;16.70;;;;;;;2.33;82.83;99199.91;1733668;82;21043;-84
2022/02/02 07:43:28;;;;;;;19.62;15.10;;;;;;;2.39;82.81;99200.53;1732615;81;21094;-84
2022/02/02 07:46:08;;;;;;;20.40;15.43;;;;;;;2.46;82.87;99211.16;1733715;82;22572;-84
2022/02/02 07:48:37;;;;;;;23.52;16.48;;;;;;;2.51;82.72;99215.19;1733420;82;21550;-84
2022/02/02 07:51:05;;;;;;;29.12;17.42;;;;;;;2.43;82.72;99196.77;1733714;82;21043;-84
2022/02/02 07:53:39;;;;;;;22.98;16.35;;;;;;;2.66;82.74;99227.80;1733343;82;21051;-84
2022/02/02 07:56:09;;;;;;;22.58;15.72;;;;;;;2.73;82.63;99232.36;1733254;82;21079;-84
2022/02/02 07:58:31;;;;;;;23.35;15.95;;;;;;;2.81;82.56;99239.97;1733007;82;21790;-84
2022/02/02 08:00:58;;;;;;;21.87;14.47;;;;;;;2.88;82.39;99244.95;1733758;82;21067;-84
2022/02/02 08:03:27;;;;;;;22.00;15.20;;;;;;;2.93;82.25;99244.69;1733891;82;21051;-84
2022/02/02 08:05:53;;;;;;;22.70;14.83;;;;;;;2.99;82.12;99249.20;1733929;82;21066;-85
2022/02/02 08:10:49;;;;;;;19.85;14.18;;;;;;;3.18;82.09;99262.34;1736404;81;21759;-83
2022/02/02 08:13:23;;;;;;;16.77;11.78;;;;;;;3.23;81.73;99269.84;1747016;82;21074;-84
2022/02/02 08:15:44;;;;;;;17.17;12.35;;;;;;;3.26;81.59;99269.52;1746220;80;21027;-84
2022/02/02 08:18:11;;;;;;;18.02;12.55;;;;;;;3.30;81.40;99284.41;1747345;80;21004;-84
2022/02/02 08:20:37;;;;;;;19.35;11.83;;;;;;;3.33;81.34;99286.63;1747345;82;21086;-85
2022/02/02 08:23:04;;;;;;;25.92;11.45;;;;;;;3.33;81.16;99291.41;1747523;82;21795;-85
2022/02/02 08:25:32;;;;;;;16.80;11.28;;;;;;;3.34;81.01;99296.17;1747445;82;21050;-84
2022/02/02 08:28:01;;;;;;;15.72;11.30;;;;;;;3.26;80.80;99309.83;1747561;82;21189;-84
2022/02/02 08:30:29;;;;;;;16.55;11.05;;;;;;;3.21;80.86;99316.63;1747523;80;21081;-85
2022/02/02 08:33:00;;;;;;;18.02;10.45;;;;;;;3.19;80.89;99331.30;1724481;82;21050;-85
2022/02/02 08:35:41;;;;;;;19.02;11.63;;;;;;;3.15;80.78;99338.51;1747510;82;21868;-85
2022/02/02 08:38:13;;;;;;;16.48;10.35;;;;;;;3.08;80.75;99343.95;1745358;81;21087;-85
2022/02/02 08:40:41;;;;;;;16.27;10.35;;;;;;;3.03;80.83;99349.83;1746734;80;21019;-85
2022/02/02 08:43:10;;;;;;;11.22;8.15;;;;;;;3.01;80.95;99358.00;1746484;81;21050;-85
2022/02/02 08:45:33;;;;;;;15.40;10.55;;;;;;;3.01;81.06;99353.67;1747236;80;21027;-85
2022/02/02 08:48:05;;;;;;;14.35;9.28;;;;;;;3.00;80.93;99364.89;1747662;82;22607;-85
2022/02/02 08:50:36;;;;;;;11.53;8.28;;;;;;;3.01;81.03;99376.20;1746598;81;21588;-86
2022/02/02 08:53:04;;;;;;;9.88;7.15;;;;;;;3.04;80.94;99379.78;1746760;82;21007;-85
2022/02/02 08:55:53;;;;;;;7.55;5.55;;;;;;;3.08;80.98;99380.34;1746855;80;21563;-85
2022/02/02 08:58:19;;;;;;;6.70;5.42;;;;;;;3.16;80.98;99390.12;1746381;80;21141;-85
2022/02/02 09:00:24;;;;;;;6.97;4.20;;;;;;;3.20;80.88;99395.45;1743128;80;21795;-85
2022/02/02 09:05:18;;;;;;;6.65;5.15;;;;;;;3.24;80.82;99397.31;1747348;81;21078;-85
2022/02/02 09:05:26;;;;;;;8.48;5.08;;;;;;;3.31;80.83;99402.31;1746550;81;21054;-85
2022/02/02 09:07:52;;;;;;;6.20;4.20;;;;;;;3.37;80.60;99403.80;1747374;82;21038;-85
2022/02/02 09:19:59;;;;;;;8.60;3.95;;;;;;;3.43;80.72;99411.78;1726260;82;21069;-85
2022/02/02 09:22:02;;;;;;;4.80;3.02;;;;;;;3.66;80.33;99432.05;1748209;82;21078;-85
2022/02/02 09:23:57;;;;;;;6.55;3.62;;;;;;;3.74;79.99;99434.02;1742714;82;21050;-83
2022/02/02 09:34:14;;;;;;;2.85;2.15;;;;;;;3.88;79.13;99474.34;1747576;80;21050;-84
2022/02/02 09:36:44;;;;;;;4.55;2.50;;;;;;;3.85;79.02;99490.77;1747452;80;21094;-84
2022/02/02 09:39:12;;;;;;;4.37;2.37;;;;;;;3.84;79.07;99482.91;1747282;82;21771;-85
2022/02/02 09:42:01;;;;;;;3.92;2.40;;;;;;;3.79;78.99;99488.38;1723684;82;21031;-84
2022/02/02 09:44:23;;;;;;;5.67;2.98;;;;;;;3.71;78.75;99494.64;1745883;80;21575;-84
2022/02/02 09:47:02;;;;;;;4.50;2.05;;;;;;;3.68;78.96;99500.64;1747445;82;21555;-84
2022/02/02 09:49:47;;;;;;;4.33;2.20;;;;;;;3.71;78.96;99503.75;1747017;81;21061;-84
2022/02/02 09:52:11;;;;;;;5.80;2.20;;;;;;;3.73;78.76;99512.48;1743598;81;21763;-85
2022/02/02 09:54:49;;;;;;;5.22;2.10;;;;;;;3.72;78.71;99514.64;1746138;81;21023;-85
2022/02/02 09:57:43;;;;;;;3.60;2.02;;;;;;;3.79;78.62;99530.92;1745661;80;21027;-85
2022/02/02 10:05:10;;;;;;;4.12;2.58;;;;;;;3.79;78.18;99546.55;1746897;82;22495;-85
2022/02/02 10:16:08;;;;;;;;;;;;;;;3.94;77.99;99546.55;1727442;82;21058;-83
2022/02/02 10:18:37;;;;;;;6.58;2.83;;;;;;;3.89;77.83;99547.30;1731704;82;21779;-84
2022/02/02 10:21:05;;;;;;;3.70;2.30;;;;;;;3.88;77.70;99547.23;1711839;82;21066;-84
2022/02/02 10:23:34;;;;;;;8.25;2.55;;;;;;;3.85;77.42;99557.14;1733792;82;21051;-85
2022/02/02 10:26:17;;;;;;;3.52;2.10;;;;;;;3.82;77.58;99562.66;1698448;83;21064;-84
2022/02/02 10:28:44;;;;;;;3.60;1.87;;;;;;;3.79;77.49;99559.55;1698481;83;21566;-85
2022/02/02 10:31:11;;;;;;;5.92;2.22;;;;;;;3.75;77.24;99562.86;1733776;82;21774;-85
2022/02/02 10:33:38;;;;;;;5.10;2.72;;;;;;;3.58;76.68;99578.34;1733936;82;21031;-84
2022/02/02 10:36:22;;;;;;;6.53;2.60;;;;;;;3.37;76.60;99582.39;1698522;84;21550;-84
2022/02/02 10:39:06;;;;;;;6.40;3.55;;;;;;;3.23;76.98;99581.50;1733857;82;21159;-84
2022/02/02 10:41:33;;;;;;;5.85;3.20;;;;;;;3.13;76.99;99598.00;1733092;82;21060;-85
2022/02/02 10:44:03;;;;;;;6.47;3.40;;;;;;;3.11;77.46;99594.05;1713209;82;21763;-85
2022/02/02 10:46:38;;;;;;;5.50;3.22;;;;;;;3.14;77.55;99596.77;1689726;82;21106;-85
2022/02/02 10:49:18;;;;;;;6.60;3.70;;;;;;;3.17;77.66;99602.48;1733481;82;21039;-85
2022/02/02 10:54:29;;;;;;;4.87;2.58;;;;;;;3.31;77.37;99603.88;1698340;84;21092;-86
2022/02/02 10:57:00;;;;;;;5.62;2.58;;;;;;;3.42;77.51;99612.06;1698066;83;21782;-86
2022/02/02 10:59:45;;;;;;;6.35;2.60;;;;;;;3.60;77.55;99611.38;1698121;83;21072;-86
2022/02/02 11:07:17;;;;;;;5.97;2.62;;;;;;;4.17;76.88;99639.76;1733767;82;21039;-86
2022/02/02 11:09:47;;;;;;;7.00;2.92;;;;;;;4.18;76.29;99637.17;1698361;84;21782;-85
2022/02/02 11:12:14;;;;;;;7.00;2.92;;;;;;;4.15;76.13;99637.09;1698355;82;21107;-85
2022/02/02 11:15:05;;;;;;;4.35;2.05;;;;;;;4.20;76.23;99641.14;1678251;84;21117;-85
2022/02/02 11:17:46;;;;;;;13.03;2.83;;;;;;;4.15;75.71;99651.42;1698242;84;21567;-86
2022/02/02 11:20:14;;;;;;;4.30;2.35;;;;;;;4.11;75.69;99656.06;1678633;85;21642;-85
2022/02/02 11:22:51;;;;;;;7.33;2.35;;;;;;;4.05;75.49;99669.77;1678582;85;21805;-85
2022/02/02 11:25:27;;;;;;;6.30;2.45;;;;;;;4.06;75.71;99671.52;1678594;85;21104;-85
2022/02/02 11:27:55;;;;;;;6.42;2.50;;;;;;;3.96;75.23;99679.88;1733835;82;21102;-85
2022/02/02 11:30:31;;;;;;;6.12;2.72;;;;;;;3.77;75.30;99690.45;1678813;84;21515;-85
2022/02/02 11:33:17;;;;;;;9.35;3.30;;;;;;;3.68;75.33;99698.42;1698757;84;21066;-84
2022/02/02 11:35:49;;;;;;;7.08;3.17;;;;;;;3.70;75.87;99698.48;1678913;85;21796;-86
2022/02/02 11:38:35;;;;;;;5.00;2.77;;;;;;;3.91;75.98;99694.86;1678934;85;21632;-86
2022/02/02 11:46:52;;;;;;;4.95;2.72;;;;;;;4.12;74.77;99722.05;1674376;82;21518;-85
2022/02/02 11:49:29;;;;;;;6.92;2.95;;;;;;;4.08;75.00;99720.63;1734059;82;21976;-85
2022/02/02 11:52:03;;;;;;;4.92;2.20;;;;;;;4.13;74.99;99732.92;1734027;82;21056;-85
2022/02/02 11:54:41;;;;;;;4.78;2.72;;;;;;;4.08;74.94;99727.14;1698152;84;21127;-85
2022/02/02 11:57:19;;;;;;;7.05;2.70;;;;;;;4.03;75.12;99753.43;1698490;84;21160;-85
2022/02/02 11:59:58;;;;;;;7.42;3.25;;;;;;;3.85;74.89;99768.00;1698061;84;21021;-84
2022/02/02 12:02:58;;;;;;;3.75;2.33;;;;;;;3.61;74.73;99767.98;1698195;84;21776;-85
2022/02/02 12:08:20;;;;;;;5.67;2.55;;;;;;;3.43;74.87;99773.80;1698086;83;21661;-84
2022/02/02 12:35:56;;;;;;;5.80;2.90;;;;;;;3.11;75.44;99825.03;1729073;83;21562;-85
2022/02/02 12:47:08;;;;;;;5.65;3.45;;;;;;;2.75;76.60;99887.22;1728728;83;21025;-84
2022/02/02 12:57:38;;;;;;;9.35;6.12;;;;;;;2.53;77.72;99897.59;1728928;83;21993;-85
2022/02/02 13:00:10;;;;;;;8.45;5.70;;;;;;;2.53;77.93;99913.18;1728121;82;21585;-85
2022/02/02 13:02:38;;;;;;;7.83;5.05;;;;;;;2.52;78.06;99920.48;1716735;83;21049;-85
2022/02/02 13:05:06;;;;;;;8.58;4.62;;;;;;;2.50;78.14;99925.14;1729189;83;21121;-85
2022/02/02 13:07:33;;;;;;;6.47;4.35;;;;;;;2.44;78.13;99924.47;1729063;83;21071;-84
2022/02/02 13:10:05;;;;;;;6.12;4.30;;;;;;;2.22;78.28;99943.38;1728714;83;21830;-84
2022/02/02 13:12:42;;;;;;;7.28;4.33;;;;;;;1.98;79.16;99956.13;1720805;81;21080;-85
2022/02/02 13:17:55;;;;;;;6.75;4.75;;;;;;;1.70;79.86;99987.25;1678880;85;21622;-84
2022/02/02 13:20:18;;;;;;;7.75;4.95;;;;;;;1.57;80.70;99999.56;1677986;84;21080;-85
2022/02/02 13:22:50;;;;;;;7.60;5.33;;;;;;;1.37;80.93;100011.16;1678867;85;21789;-84
2022/02/02 13:25:20;;;;;;;5.83;4.37;;;;;;;1.21;81.33;100004.70;1678539;85;21128;-85
2022/02/02 13:27:49;;;;;;;7.12;5.05;;;;;;;1.15;82.25;100006.59;1713155;82;21269;-84
2022/02/02 13:30:38;;;;;;;7.45;5.55;;;;;;;1.07;82.12;100017.86;1733977;82;21083;-84
2022/02/02 13:33:31;;;;;;;9.25;5.75;;;;;;;1.01;82.35;100036.96;1733635;82;21074;-84
2022/02/02 13:36:31;;;;;;;11.10;7.25;;;;;;;1.02;82.59;100033.58;1734012;82;21791;-84
2022/02/02 13:44:49;;;;;;;15.58;9.63;;;;;;;1.19;82.71;100078.50;1733597;82;21020;-85
2022/02/02 13:47:53;;;;;;;17.67;10.05;;;;;;;1.23;82.70;100094.70;1733953;82;21126;-84
2022/02/02 13:53:06;;;;;;;16.37;8.83;;;;;;;1.35;82.74;100085.35;1698375;84;21569;-84
2022/02/02 14:01:00;;;;;;;14.00;9.40;;;;;;;1.53;82.81;100125.20;1684269;85;21074;-84
2022/02/02 14:06:30;;;;;;;15.30;7.40;;;;;;;1.53;82.53;100146.36;1684318;85;21237;-85
2022/02/02 14:33:09;;;;;;;10.23;5.95;;;;;;;0.96;83.38;100223.73;1719177;82;21271;-85
2022/02/02 14:35:36;;;;;;;12.65;6.33;;;;;;;1.04;83.59;100237.98;1744068;81;21046;-85
2022/02/02 14:38:04;;;;;;;11.28;6.08;;;;;;;1.10;83.57;100243.91;1726117;82;21009;-85
2022/02/02 14:40:46;;;;;;;14.80;7.15;;;;;;;1.15;83.60;100255.02;1726141;83;21098;-85
2022/02/02 14:43:07;;;;;;;13.00;6.78;;;;;;;1.20;83.39;100260.44;1725672;81;21808;-85
2022/02/02 14:45:38;;;;;;;11.60;6.60;;;;;;;1.19;83.29;100271.64;1726138;81;21087;-85
2022/02/02 14:48:11;;;;;;;12.82;5.58;;;;;;;1.21;83.24;100276.50;1726003;83;21098;-85
2022/02/02 14:50:53;;;;;;;11.50;4.60;;;;;;;1.20;82.83;100285.48;1726181;81;21533;-85
2022/02/02 14:53:20;;;;;;;12.88;5.00;;;;;;;1.16;82.57;100289.22;1725358;81;21130;-85
2022/02/02 15:28:05;;;;;;;8.07;3.10;;;;;;;0.54;81.58;100378.08;1680884;85;21654;-83
2022/02/02 15:30:35;;;;;;;6.40;3.50;;;;;;;0.56;81.54;100388.53;1645059;87;21173;-84
2022/02/02 15:33:04;;;;;;;6.72;3.87;;;;;;;0.58;81.51;100388.22;1645084;87;21141;-84
2022/02/02 15:35:29;;;;;;;6.78;3.70;;;;;;;0.64;81.58;100382.51;1626447;88;21804;-84
2022/02/02 15:38:01;;;;;;;8.78;4.33;;;;;;;0.69;81.53;100392.75;1626978;88;21106;-84
2022/02/02 15:40:35;;;;;;;7.90;4.17;;;;;;;0.70;81.49;100402.33;1645622;87;21599;-84
2022/02/02 15:59:26;;;;;;;9.88;5.05;;;;;;;0.75;81.11;100453.98;1682569;85;21087;-85
2022/02/02 16:04:32;;;;;;;11.05;5.03;;;;;;;0.73;81.06;100462.98;1685128;83;21155;-84
2022/02/02 16:06:56;;;;;;;14.30;5.60;;;;;;;0.73;81.03;100471.13;1686537;83;21101;-84
2022/02/02 16:09:27;;;;;;;11.15;5.45;;;;;;;0.72;81.00;100468.95;1695503;84;21074;-84
2022/02/02 16:12:41;;;;;;;11.95;5.22;;;;;;;0.75;80.87;100470.81;1670566;83;21061;-84
2022/02/02 16:14:27;;;;;;;12.40;5.70;;;;;;;0.73;80.75;100475.02;1710168;80;21849;-84
2022/02/02 16:17:21;;;;;;;14.68;4.87;;;;;;;0.68;80.53;100485.53;1725172;81;21042;-85
2022/02/02 16:19:27;;;;;;;8.55;4.33;;;;;;;0.64;80.30;100488.70;1718748;81;21032;-85
2022/02/02 16:38:01;;;;;;;7.67;3.35;;;;;;;1.05;80.14;100549.90;1728758;81;21634;-84
2022/02/02 16:40:33;;;;;;;6.42;3.30;;;;;;;1.08;80.03;100561.34;1718500;82;21840;-83
2022/02/02 16:43:13;;;;;;;5.22;2.72;;;;;;;1.11;79.97;100560.66;1722817;83;21054;-84
2022/02/02 16:45:38;;;;;;;6.53;2.80;;;;;;;1.15;80.25;100570.41;1715884;81;21524;-84
2022/02/02 16:48:05;;;;;;;9.43;3.33;;;;;;;1.17;80.38;100579.16;1722531;82;21016;-84
2022/02/02 16:50:38;;;;;;;9.63;4.08;;;;;;;1.20;80.27;100582.33;1724188;83;21125;-82
2022/02/02 16:53:07;;;;;;;10.43;4.28;;;;;;;1.20;80.30;100589.69;1715782;82;21822;-82
2022/02/02 16:55:37;;;;;;;7.70;3.98;;;;;;;1.19;80.15;100592.22;1719882;82;21086;-83
2022/02/02 16:58:16;;;;;;;7.75;3.72;;;;;;;1.15;80.10;100592.44;1710930;83;21158;-82
2022/02/02 17:29:12;;;;;;;4.87;3.05;;;;;;;1.08;82.38;100669.34;1669933;84;21592;-83
2022/02/02 17:30:38;;;;;;;6.85;2.50;;;;;;;0.87;83.18;100676.27;1670309;84;21082;-82
2022/02/02 17:33:07;;;;;;;4.40;2.10;;;;;;;0.73;85.55;100673.20;1664903;84;21705;-83
2022/02/02 17:38:19;;;;;;;4.05;2.30;;;;;;;0.55;85.65;100674.25;1692855;83;21130;-82
2022/02/02 17:45:53;;;;;;;7.60;5.22;;;;;;;0.52;83.54;100683.11;1733566;82;21790;-81
2022/02/02 18:20:28;;;;;;;16.17;8.68;;;;;;;0.70;82.40;100758.52;1739646;81;21082;-81
2022/02/02 18:23:03;;;;;;;15.25;8.10;;;;;;;0.69;82.29;100759.30;1765162;80;21083;-81
2022/02/02 18:25:30;;;;;;;18.05;9.50;;;;;;;0.71;82.22;100765.11;1735729;80;21768;-82
2022/02/02 18:28:04;;;;;;;12.40;7.10;;;;;;;0.73;82.05;100773.88;1737301;81;21157;-82
2022/02/02 18:30:35;;;;;;;16.60;8.83;;;;;;;0.72;81.82;100769.88;1743263;80;21012;-82
2022/02/02 18:33:14;;;;;;;13.70;6.97;;;;;;;0.72;81.68;100774.66;1726882;82;21149;-82
2022/02/02 18:35:36;;;;;;;10.80;6.08;;;;;;;0.70;81.52;100778.84;1726796;81;21122;-82
2022/02/02 18:41:54;;;;;;;11.85;6.67;;;;;;;0.69;81.33;100774.84;1729562;81;21014;-81
2022/02/02 18:48:56;;;;;;;14.58;8.30;;;;;;;0.68;81.12;100780.44;1728032;81;22477;-81
2022/02/02 18:56:32;;;;;;;18.42;7.90;;;;;;;0.69;80.73;100791.69;1729627;82;21512;-81
2022/02/02 18:59:09;;;;;;;16.35;8.23;;;;;;;0.69;80.70;100795.16;1720462;81;21113;-82
2022/02/02 19:39:57;;;;;;;32.90;14.58;;;;;;;0.72;80.44;100872.22;1728733;81;21158;-79
2022/02/02 19:53:03;;;;;;;23.52;11.90;;;;;;;0.88;80.41;100894.47;1728511;81;21067;-83
2022/02/02 19:55:33;;;;;;;26.00;12.30;;;;;;;0.90;80.42;100904.53;1720973;81;21200;-83
2022/02/02 20:06:25;;;;;;;21.68;11.43;;;;;;;0.99;80.25;100933.14;1717682;81;21053;-82
2022/02/02 20:11:40;;;;;;;18.07;10.45;;;;;;;1.02;80.25;100926.88;1717715;81;21861;-81
2022/02/02 20:14:07;;;;;;;26.62;11.95;;;;;;;1.03;80.16;100920.88;1714943;83;21094;-82
2022/02/02 20:16:34;;;;;;;23.95;11.88;;;;;;;1.05;80.21;100924.09;1697694;83;21527;-82
2022/02/02 20:19:04;;;;;;;21.87;10.68;;;;;;;1.07;80.14;100922.86;1693751;83;21090;-82